createdAt,value
2019-06-20T00:00:57.344Z,22.29
2019-06-20T00:03:29.365Z,22.33
2019-06-20T00:06:01.372Z,22.32
2019-06-20T00:08:33.512Z,22.27
2019-06-20T00:11:05.525Z,22.19
2019-06-20T00:13:37.570Z,22.22
2019-06-20T00:16:10.598Z,22.19
2019-06-20T00:18:42.702Z,22.16
2019-06-20T00:21:14.829Z,22.09
2019-06-20T00:23:46.855Z,22.05
2019-06-20T00:26:18.863Z,22.03
2019-06-20T00:28:50.959Z,22.05
2019-06-20T00:31:22.969Z,22.03
2019-06-20T00:33:54.991Z,22.03
2019-06-20T00:36:27.137Z,22.02
2019-06-20T00:38:59.180Z,22.02
2019-06-20T00:41:31.305Z,21.99
2019-06-20T00:44:03.416Z,21.94
2019-06-20T00:46:35.528Z,21.89
2019-06-20T00:49:07.660Z,21.85
2019-06-20T00:51:39.737Z,21.89
2019-06-20T00:54:11.842Z,21.83
2019-06-20T00:56:43.950Z,21.77
2019-06-20T00:59:16.096Z,21.76
2019-06-20T01:01:49.134Z,21.73
2019-06-20T01:04:21.360Z,21.68
2019-06-20T01:06:53.501Z,21.64
2019-06-20T01:09:25.640Z,21.61
2019-06-20T01:11:57.745Z,21.61
2019-06-20T01:14:29.753Z,21.56
2019-06-20T01:17:01.887Z,21.51
2019-06-20T01:19:34.008Z,21.49
2019-06-20T01:22:06.226Z,21.50
2019-06-20T01:24:38.341Z,21.52
2019-06-20T01:27:10.455Z,21.48
2019-06-20T01:29:42.559Z,21.43
2019-06-20T01:32:15.698Z,21.41
2019-06-20T01:34:47.816Z,21.35
2019-06-20T01:37:19.944Z,21.29
2019-06-20T01:39:52.069Z,21.32
2019-06-20T01:42:24.181Z,21.26
2019-06-20T01:44:56.133Z,21.23
2019-06-20T01:47:28.457Z,21.25
2019-06-20T01:50:00.585Z,21.26
2019-06-20T01:52:32.784Z,21.23
2019-06-20T01:55:05.403Z,21.20
2019-06-20T01:57:37.524Z,21.24
2019-06-20T02:00:09.589Z,21.26
2019-06-20T02:02:41.695Z,21.28
2019-06-20T02:05:13.827Z,21.32
2019-06-20T02:07:45.931Z,21.31
2019-06-20T02:10:19.017Z,21.29
2019-06-20T02:12:51.157Z,21.33
2019-06-20T02:15:23.280Z,21.41
2019-06-20T02:17:55.389Z,21.51
2019-06-20T02:20:47.935Z,21.49
2019-06-20T02:23:20.260Z,21.53
2019-06-20T02:25:52.408Z,21.53
2019-06-20T02:28:24.384Z,21.60
2019-06-20T02:30:56.504Z,21.69
2019-06-20T02:33:29.636Z,21.75
2019-06-20T02:36:01.773Z,21.77
2019-06-20T02:38:33.941Z,21.83
2019-06-20T02:41:06.076Z,21.91
2019-06-20T02:43:38.202Z,21.99
2019-06-20T02:46:10.322Z,22.02
2019-06-20T02:48:42.457Z,22.10
2019-06-20T02:51:14.904Z,22.17
2019-06-20T02:53:47.104Z,22.26
2019-06-20T02:56:19.244Z,22.31
2019-06-20T02:58:51.374Z,22.36
2019-06-20T03:01:23.478Z,22.40
2019-06-20T03:03:55.504Z,22.46
2019-06-20T03:06:27.536Z,22.53
2019-06-20T03:08:59.553Z,22.63
2019-06-20T03:11:32.437Z,22.70
2019-06-20T03:14:04.458Z,22.73
2019-06-20T03:16:36.587Z,22.84
2019-06-20T03:19:08.628Z,22.83
2019-06-20T03:21:40.845Z,22.84
2019-06-20T03:24:12.974Z,22.94
2019-06-20T03:26:45.010Z,23.00
2019-06-20T03:29:17.044Z,23.08
2019-06-20T03:31:50.161Z,23.10
2019-06-20T03:34:22.189Z,23.17
2019-06-20T03:36:54.291Z,23.18
2019-06-20T03:39:27.293Z,23.25
2019-06-20T03:41:59.302Z,23.34
2019-06-20T03:44:31.339Z,23.34
2019-06-20T03:47:03.370Z,23.46
2019-06-20T03:49:35.401Z,23.54
2019-06-20T03:52:07.426Z,23.66
2019-06-20T03:54:39.457Z,23.71
2019-06-20T03:57:11.580Z,23.72
2019-06-20T03:59:43.503Z,23.88
2019-06-20T04:02:15.456Z,23.97
2019-06-20T04:04:47.301Z,24.11
2019-06-20T04:07:19.398Z,24.24
2019-06-20T04:09:51.406Z,24.30
2019-06-20T04:12:23.928Z,24.43
2019-06-20T04:14:56.028Z,24.52
2019-06-20T04:17:28.145Z,24.74
2019-06-20T04:20:00.177Z,24.87
2019-06-20T04:22:32.287Z,24.98
2019-06-20T04:25:04.429Z,25.07
2019-06-20T04:27:36.459Z,25.18
2019-06-20T04:30:08.635Z,25.20
2019-06-20T04:32:40.617Z,25.37
2019-06-20T04:35:12.641Z,25.45
2019-06-20T04:37:44.572Z,25.56
2019-06-20T04:40:16.491Z,25.73
2019-06-20T04:42:48.404Z,25.88
2019-06-20T04:45:35.154Z,26.04
2019-06-20T04:48:01.621Z,26.13
2019-06-20T04:50:33.511Z,26.21
2019-06-20T04:53:05.427Z,26.13
2019-06-20T04:55:37.428Z,26.23
2019-06-20T04:58:09.348Z,26.32
2019-06-20T05:00:41.241Z,26.36
2019-06-20T05:03:13.243Z,26.51
2019-06-20T05:05:45.321Z,26.67
2019-06-20T05:08:17.444Z,26.79
2019-06-20T05:10:49.364Z,26.91
2019-06-20T05:13:21.397Z,27.06
2019-06-20T05:15:53.616Z,27.07
2019-06-20T05:18:27.199Z,26.99
2019-06-20T05:20:59.117Z,27.00
2019-06-20T05:23:31.181Z,27.08
2019-06-20T05:26:03.288Z,27.14
2019-06-20T05:28:35.230Z,27.14
2019-06-20T05:31:07.166Z,27.29
2019-06-20T05:33:39.113Z,27.40
2019-06-20T05:36:11.152Z,27.53
2019-06-20T05:38:43.205Z,27.75
2019-06-20T05:41:15.324Z,27.81
2019-06-20T05:43:47.361Z,27.97
2019-06-20T05:46:19.380Z,27.93
2019-06-20T05:48:51.301Z,27.97
2019-06-20T05:51:24.047Z,28.05
2019-06-20T05:53:56.090Z,28.15
2019-06-20T05:56:28.229Z,28.17
2019-06-20T05:59:00.089Z,28.19
2019-06-20T06:01:31.920Z,28.23
2019-06-20T06:04:03.759Z,28.27
2019-06-20T06:06:35.761Z,28.39
2019-06-20T06:09:07.992Z,28.47
2019-06-20T06:11:39.922Z,28.38
2019-06-20T06:14:11.825Z,28.42
2019-06-20T06:16:44.821Z,28.52
2019-06-20T06:19:16.765Z,28.54
2019-06-20T06:21:49.632Z,28.61
2019-06-20T06:24:21.590Z,28.66
2019-06-20T06:26:53.526Z,28.74
2019-06-20T06:29:25.468Z,28.65
2019-06-20T06:31:57.632Z,28.76
2019-06-20T06:34:29.538Z,28.83
2019-06-20T06:37:01.480Z,28.91
2019-06-20T06:39:33.411Z,28.89
2019-06-20T06:42:05.364Z,29.00
2019-06-20T06:44:37.296Z,29.04
2019-06-20T06:47:09.264Z,29.19
2019-06-20T06:49:41.206Z,29.19
2019-06-20T06:52:13.146Z,29.27
2019-06-20T06:54:45.048Z,29.32
2019-06-20T06:57:16.953Z,29.42
2019-06-20T06:59:48.866Z,29.50
2019-06-20T07:02:20.767Z,29.43
2019-06-20T07:04:52.718Z,29.57
2019-06-20T07:07:24.623Z,29.58
2019-06-20T07:09:56.551Z,29.72
2019-06-20T07:12:28.485Z,29.83
2019-06-20T07:15:00.454Z,29.88
2019-06-20T07:17:32.477Z,29.88
2019-06-20T07:20:06.376Z,29.90
2019-06-20T07:22:38.370Z,29.89
2019-06-20T07:25:18.688Z,29.94
2019-06-20T07:27:53.145Z,30.05
2019-06-20T07:30:28.158Z,30.16
2019-06-20T07:33:01.147Z,30.19
2019-06-20T07:35:33.051Z,30.03
2019-06-20T07:38:05.018Z,30.17
2019-06-20T07:40:37.336Z,30.18
2019-06-20T07:43:09.321Z,30.33
2019-06-20T07:45:41.253Z,30.36
2019-06-20T07:48:14.188Z,30.40
2019-06-20T07:50:46.445Z,30.45
2019-06-20T07:53:18.473Z,30.56
2019-06-20T07:55:50.559Z,30.59
2019-06-20T07:58:25.371Z,30.63
2019-06-20T08:00:57.472Z,30.71
2019-06-20T08:03:31.003Z,30.72
2019-06-20T08:06:02.961Z,30.73
2019-06-20T08:08:35.940Z,30.83
2019-06-20T08:11:07.929Z,30.80
2019-06-20T08:13:39.912Z,30.74
2019-06-20T08:16:11.896Z,30.76
2019-06-20T08:18:43.862Z,30.85
2019-06-20T08:21:15.811Z,30.96
2019-06-20T08:23:47.748Z,30.93
2019-06-20T08:26:19.694Z,31.03
2019-06-20T08:29:07.380Z,31.07
2019-06-20T08:31:25.235Z,31.02
2019-06-20T08:33:57.674Z,30.83
2019-06-20T08:36:30.912Z,30.83
2019-06-20T08:39:02.857Z,31.04
2019-06-20T08:41:36.098Z,30.98
2019-06-20T08:44:07.976Z,30.96
2019-06-20T08:46:39.885Z,30.86
2019-06-20T08:49:11.929Z,30.77
2019-06-20T08:51:43.846Z,30.93
2019-06-20T08:54:15.804Z,31.11
2019-06-20T08:56:47.738Z,31.26
2019-06-20T08:59:24.452Z,31.33
2019-06-20T09:01:56.542Z,31.41
2019-06-20T09:04:27.734Z,31.47
2019-06-20T09:07:00.604Z,31.45
2019-06-20T09:09:32.944Z,31.54
2019-06-20T09:12:05.164Z,31.54
2019-06-20T09:14:37.278Z,31.64
2019-06-20T09:17:09.239Z,31.66
2019-06-20T09:19:41.156Z,31.71
2019-06-20T09:22:13.064Z,31.80
2019-06-20T09:24:44.986Z,31.85
2019-06-20T09:27:17.099Z,31.90
2019-06-20T09:29:49.021Z,32.01
2019-06-20T09:32:21.193Z,31.99
2019-06-20T09:34:54.454Z,31.92
2019-06-20T09:37:26.554Z,31.96
2019-06-20T09:39:59.207Z,32.01
2019-06-20T09:42:32.253Z,32.08
2019-06-20T09:45:06.341Z,32.10
2019-06-20T09:47:38.284Z,32.14
2019-06-20T09:50:12.344Z,32.19
2019-06-20T09:52:44.281Z,32.23
2019-06-20T09:55:16.238Z,32.13
2019-06-20T09:57:49.223Z,32.18
2019-06-20T10:00:24.862Z,32.26
2019-06-20T10:02:57.792Z,32.27
2019-06-20T10:05:29.959Z,32.33
2019-06-20T10:08:01.935Z,32.32
2019-06-20T10:10:33.882Z,32.41
2019-06-20T10:13:05.871Z,32.42
2019-06-20T10:15:38.016Z,32.43
2019-06-20T10:18:09.936Z,32.40
2019-06-20T10:20:41.846Z,32.43
2019-06-20T10:23:13.880Z,32.47
2019-06-20T10:25:47.470Z,32.53
2019-06-20T10:28:19.413Z,32.53
2019-06-20T10:30:51.364Z,32.50
2019-06-20T10:33:23.254Z,32.60
2019-06-20T10:35:55.185Z,32.53
2019-06-20T10:38:27.160Z,32.56
2019-06-20T10:41:00.129Z,32.54
2019-06-20T10:43:32.191Z,32.58
2019-06-20T10:46:04.110Z,32.66
2019-06-20T10:48:36.037Z,32.71
2019-06-20T10:51:26.245Z,32.70
2019-06-20T10:53:58.254Z,32.76
2019-06-20T10:56:31.166Z,32.83
2019-06-20T10:59:03.289Z,32.73
2019-06-20T11:01:35.226Z,32.86
2019-06-20T11:04:07.151Z,32.91
2019-06-20T11:06:40.044Z,32.95
2019-06-20T11:09:12.613Z,32.96
2019-06-20T11:11:44.782Z,33.03
2019-06-20T11:14:16.829Z,32.97
2019-06-20T11:16:50.603Z,33.01
2019-06-20T11:19:22.508Z,33.05
2019-06-20T11:21:54.372Z,33.05
2019-06-20T11:24:26.314Z,33.11
2019-06-20T11:26:58.231Z,33.16
2019-06-20T11:29:30.169Z,33.20
2019-06-20T11:32:02.107Z,33.32
2019-06-20T11:34:34.103Z,33.37
2019-06-20T11:37:06.024Z,33.33
2019-06-20T11:39:38.915Z,33.32
2019-06-20T11:42:11.011Z,33.37
2019-06-20T11:44:43.116Z,33.39
2019-06-20T11:47:15.178Z,33.28
2019-06-20T11:49:47.108Z,33.18
2019-06-20T11:52:19.019Z,33.28
2019-06-20T11:54:50.949Z,33.34
2019-06-20T11:57:22.956Z,33.30
2019-06-20T11:59:54.975Z,33.30
2019-06-20T12:02:26.913Z,33.36
2019-06-20T12:04:58.834Z,33.36
2019-06-20T12:07:30.755Z,33.39
2019-06-20T12:10:04.467Z,33.41
2019-06-20T12:12:36.413Z,33.40
2019-06-20T12:15:09.141Z,33.45
2019-06-20T12:17:43.375Z,33.51
2019-06-20T12:20:16.621Z,33.48
2019-06-20T12:22:50.508Z,33.60
2019-06-20T12:25:23.396Z,33.56
2019-06-20T12:27:55.297Z,33.64
2019-06-20T12:30:27.140Z,33.68
2019-06-20T12:32:59.042Z,33.68
2019-06-20T12:35:30.949Z,33.68
2019-06-20T12:38:02.886Z,33.65
2019-06-20T12:40:34.781Z,33.64
2019-06-20T12:43:06.720Z,33.56
2019-06-20T12:45:40.007Z,33.39
2019-06-20T12:48:12.203Z,33.45
2019-06-20T12:50:45.089Z,33.33
2019-06-20T12:53:17.150Z,33.34
2019-06-20T12:55:50.697Z,33.46
2019-06-20T12:58:23.859Z,33.52
2019-06-20T13:00:56.179Z,33.49
2019-06-20T13:03:28.199Z,33.41
2019-06-20T13:06:00.230Z,33.54
2019-06-20T13:08:32.155Z,33.60
2019-06-20T13:11:04.090Z,33.60
2019-06-20T13:13:38.758Z,33.68
2019-06-20T13:16:10.230Z,33.67
2019-06-20T13:18:44.480Z,33.71
2019-06-20T13:21:18.954Z,33.66
2019-06-20T13:23:50.172Z,33.71
2019-06-20T13:26:22.095Z,33.73
2019-06-20T13:29:03.770Z,33.79
2019-06-20T13:31:27.564Z,33.76
2019-06-20T13:33:59.485Z,33.77
2019-06-20T13:36:31.436Z,33.68
2019-06-20T13:39:05.323Z,33.61
2019-06-20T13:41:40.786Z,33.68
2019-06-20T13:44:14.382Z,33.71
2019-06-20T13:46:46.736Z,33.56
2019-06-20T13:49:18.690Z,33.65
2019-06-20T13:51:50.626Z,33.71
2019-06-20T13:54:22.568Z,33.76
2019-06-20T13:56:54.500Z,33.69
2019-06-20T13:59:26.390Z,33.66
2019-06-20T14:02:06.658Z,33.77
2019-06-20T14:04:32.055Z,33.94
2019-06-20T14:07:03.967Z,34.06
2019-06-20T14:09:36.025Z,33.84
2019-06-20T14:12:11.357Z,33.92
2019-06-20T14:14:44.009Z,33.94
2019-06-20T14:17:15.981Z,33.78
2019-06-20T14:19:48.674Z,33.80
2019-06-20T14:22:20.690Z,33.95
2019-06-20T14:24:53.707Z,34.06
2019-06-20T14:27:25.688Z,34.10
2019-06-20T14:29:57.636Z,34.08
2019-06-20T14:32:29.589Z,34.17
2019-06-20T14:35:01.524Z,34.15
2019-06-20T14:37:33.443Z,34.04
2019-06-20T14:40:07.041Z,34.06
2019-06-20T14:42:38.957Z,34.01
2019-06-20T14:45:10.898Z,33.99
2019-06-20T14:47:43.926Z,34.00
2019-06-20T14:50:16.879Z,33.95
2019-06-20T14:52:50.002Z,34.04
2019-06-20T14:55:23.519Z,34.28
2019-06-20T14:57:55.598Z,34.35
2019-06-20T15:00:27.582Z,34.15
2019-06-20T15:02:59.522Z,33.98
2019-06-20T15:05:34.736Z,34.07
2019-06-20T15:08:06.041Z,34.06
2019-06-20T15:10:38.837Z,34.03
2019-06-20T15:13:10.801Z,33.95
2019-06-20T15:15:42.708Z,33.89
2019-06-20T15:18:14.650Z,33.80
2019-06-20T15:20:46.954Z,33.94
2019-06-20T15:23:20.293Z,34.02
2019-06-20T15:25:52.278Z,34.17
2019-06-20T15:28:24.217Z,34.08
2019-06-20T15:30:57.281Z,34.03
2019-06-20T15:33:29.374Z,33.92
2019-06-20T15:36:01.251Z,33.97
2019-06-20T15:38:33.178Z,33.70
2019-06-20T15:41:05.083Z,33.75
2019-06-20T15:43:36.987Z,33.61
2019-06-20T15:46:08.904Z,33.54
2019-06-20T15:48:40.957Z,33.44
2019-06-20T15:51:12.982Z,33.42
2019-06-20T15:53:44.897Z,33.41
2019-06-20T15:56:16.913Z,33.43
2019-06-20T15:58:48.932Z,33.34
2019-06-20T16:01:20.842Z,33.43
2019-06-20T16:03:52.765Z,33.35
2019-06-20T16:06:25.666Z,33.40
2019-06-20T16:08:57.581Z,33.34
2019-06-20T16:11:29.511Z,33.13
2019-06-20T16:14:01.425Z,33.16
2019-06-20T16:16:33.341Z,32.98
2019-06-20T16:19:05.252Z,33.01
2019-06-20T16:21:37.175Z,32.91
2019-06-20T16:24:12.458Z,32.87
2019-06-20T16:26:42.751Z,32.83
2019-06-20T16:29:14.704Z,32.59
2019-06-20T16:31:46.621Z,32.57
2019-06-20T16:34:18.557Z,32.57
2019-06-20T16:36:50.469Z,32.49
2019-06-20T16:39:22.456Z,32.39
2019-06-20T16:41:54.390Z,32.35
2019-06-20T16:44:26.294Z,32.40
2019-06-20T16:46:58.227Z,32.41
2019-06-20T16:49:30.381Z,32.45
2019-06-20T16:52:02.457Z,32.32
2019-06-20T16:54:34.408Z,32.09
2019-06-20T16:57:06.338Z,32.00
2019-06-20T16:59:38.268Z,31.95
2019-06-20T17:02:10.196Z,31.88
2019-06-20T17:04:42.085Z,31.81
2019-06-20T17:07:14.034Z,31.79
2019-06-20T17:09:45.924Z,31.71
2019-06-20T17:12:17.827Z,31.66
2019-06-20T17:14:49.748Z,31.53
2019-06-20T17:17:21.658Z,31.30
2019-06-20T17:19:53.586Z,31.00
2019-06-20T17:22:25.557Z,30.75
2019-06-20T17:24:57.494Z,30.47
2019-06-20T17:27:29.488Z,30.25
2019-06-20T17:30:01.870Z,30.01
2019-06-20T17:32:34.052Z,29.76
2019-06-20T17:35:07.682Z,29.55
2019-06-20T17:37:39.693Z,29.39
2019-06-20T17:40:12.223Z,29.20
2019-06-20T17:42:45.239Z,28.98
2019-06-20T17:45:17.366Z,28.79
2019-06-20T17:47:49.382Z,28.61
2019-06-20T17:50:21.399Z,28.41
2019-06-20T17:52:53.427Z,28.28
2019-06-20T17:55:25.453Z,28.05
2019-06-20T17:57:57.477Z,27.96
2019-06-20T18:00:29.413Z,27.83
2019-06-20T18:03:01.451Z,27.67
2019-06-20T18:05:33.495Z,27.48
2019-06-20T18:08:14.520Z,27.48
2019-06-20T18:10:39.250Z,27.38
2019-06-20T18:13:11.352Z,27.24
2019-06-20T18:15:43.366Z,27.13
2019-06-20T18:18:15.459Z,26.95
2019-06-20T18:20:47.482Z,26.92
2019-06-20T18:23:19.619Z,26.80
2019-06-20T18:25:51.687Z,26.70
2019-06-20T18:28:23.685Z,26.63
2019-06-20T18:30:55.702Z,26.52
2019-06-20T18:33:27.757Z,26.42
2019-06-20T18:35:59.789Z,26.34
2019-06-20T18:38:31.839Z,26.23
2019-06-20T18:41:03.908Z,26.10
2019-06-20T18:43:35.914Z,26.01
2019-06-20T18:46:07.942Z,25.92
2019-06-20T18:48:40.008Z,25.86
2019-06-20T18:51:13.189Z,25.81
2019-06-20T18:53:45.356Z,25.73
2019-06-20T18:56:17.386Z,25.66
2019-06-20T18:58:49.521Z,25.65
2019-06-20T19:01:21.577Z,25.58
2019-06-20T19:03:53.619Z,25.44
2019-06-20T19:06:35.610Z,25.36
2019-06-20T19:08:59.455Z,25.35
2019-06-20T19:11:33.105Z,25.19
2019-06-20T19:14:05.217Z,25.11
2019-06-20T19:16:37.185Z,25.05
2019-06-20T19:19:09.178Z,25.01
2019-06-20T19:21:41.228Z,24.95
2019-06-20T19:24:14.440Z,24.92
2019-06-20T19:26:46.458Z,24.93
2019-06-20T19:29:18.556Z,24.91
2019-06-20T19:31:50.606Z,24.86
2019-06-20T19:34:22.650Z,24.79
2019-06-20T19:36:54.789Z,24.68
2019-06-20T19:39:26.797Z,24.62
2019-06-20T19:41:58.854Z,24.65
2019-06-20T19:44:31.014Z,24.54
2019-06-20T19:47:03.060Z,24.41
2019-06-20T19:49:35.082Z,24.34
2019-06-20T19:52:07.089Z,24.28
2019-06-20T19:54:39.102Z,24.15
2019-06-20T19:57:11.121Z,24.19
2019-06-20T19:59:46.039Z,24.17
2019-06-20T20:02:16.873Z,24.11
2019-06-20T20:04:48.838Z,24.00
2019-06-20T20:07:20.963Z,23.96
2019-06-20T20:09:52.995Z,23.95
2019-06-20T20:12:25.036Z,23.97
2019-06-20T20:14:57.056Z,23.89
2019-06-20T20:17:29.111Z,23.90
2019-06-20T20:20:07.653Z,23.84
2019-06-20T20:22:39.638Z,23.80
2019-06-20T20:25:11.785Z,23.78
2019-06-20T20:27:43.831Z,23.71
2019-06-20T20:30:15.837Z,23.64
2019-06-20T20:32:47.956Z,23.61
2019-06-20T20:35:34.511Z,23.60
2019-06-20T20:37:54.820Z,23.50
2019-06-20T20:40:27.853Z,23.33
2019-06-20T20:42:59.901Z,23.32
2019-06-20T20:45:31.940Z,23.35
2019-06-20T20:48:04.215Z,23.30
2019-06-20T20:50:36.180Z,23.24
2019-06-20T20:53:08.232Z,23.22
2019-06-20T20:55:40.280Z,23.11
2019-06-20T20:58:12.320Z,23.07
2019-06-20T21:00:51.825Z,23.03
2019-06-20T21:03:23.959Z,23.03
2019-06-20T21:05:57.052Z,22.95
2019-06-20T21:08:32.842Z,22.90
2019-06-20T21:11:03.819Z,22.94
2019-06-20T21:13:35.809Z,22.84
2019-06-20T21:16:07.831Z,22.77
2019-06-20T21:18:39.863Z,22.75
2019-06-20T21:21:11.977Z,22.77
2019-06-20T21:23:43.988Z,22.63
2019-06-20T21:26:16.056Z,22.62
2019-06-20T21:28:48.084Z,22.60
2019-06-20T21:31:20.127Z,22.56
2019-06-20T21:33:54.482Z,22.52
2019-06-20T21:36:25.976Z,22.52
2019-06-20T21:38:58.129Z,22.45
2019-06-20T21:41:30.155Z,22.40
2019-06-20T21:44:02.185Z,22.37
2019-06-20T21:46:34.240Z,22.29
2019-06-20T21:49:06.279Z,22.18
2019-06-20T21:51:38.315Z,22.18
2019-06-20T21:54:10.373Z,22.12
2019-06-20T21:56:42.401Z,22.14
2019-06-20T21:59:15.330Z,22.14
2019-06-20T22:01:48.529Z,22.09
2019-06-20T22:04:21.861Z,22.02
2019-06-20T22:06:53.909Z,21.91
2019-06-20T22:09:25.940Z,21.88
2019-06-20T22:11:57.958Z,21.85
2019-06-20T22:14:32.432Z,21.84
2019-06-20T22:17:03.683Z,21.80
2019-06-20T22:19:35.833Z,21.77
2019-06-20T22:22:07.891Z,21.76
2019-06-20T22:24:39.942Z,21.72
2019-06-20T22:27:11.970Z,21.67
2019-06-20T22:29:43.979Z,21.58
2019-06-20T22:32:16.013Z,21.62
2019-06-20T22:34:48.044Z,21.51
2019-06-20T22:37:20.177Z,21.48
2019-06-20T22:39:52.336Z,21.46
2019-06-20T22:42:24.373Z,21.44
2019-06-20T22:44:56.415Z,21.43
2019-06-20T22:47:28.578Z,21.42
2019-06-20T22:50:00.598Z,21.40
2019-06-20T22:52:32.629Z,21.32
2019-06-20T22:55:05.771Z,21.30
2019-06-20T22:57:37.828Z,21.24
2019-06-20T23:00:09.882Z,21.17
2019-06-20T23:02:41.920Z,21.09
2019-06-20T23:05:14.057Z,21.06
2019-06-20T23:07:46.191Z,21.02
2019-06-20T23:10:18.228Z,21.02
2019-06-20T23:12:50.263Z,21.00
2019-06-20T23:15:22.360Z,20.96
2019-06-20T23:17:54.410Z,20.94
2019-06-20T23:20:26.416Z,20.89
2019-06-20T23:22:58.445Z,20.88
2019-06-20T23:25:30.607Z,20.84
2019-06-20T23:28:02.559Z,20.75
2019-06-20T23:30:34.551Z,20.77
2019-06-20T23:33:06.597Z,20.75
2019-06-20T23:35:38.626Z,20.69
2019-06-20T23:38:10.663Z,20.66
2019-06-20T23:40:42.897Z,20.65
2019-06-20T23:43:14.930Z,20.60
2019-06-20T23:45:47.018Z,20.56
2019-06-20T23:48:19.066Z,20.50
2019-06-20T23:50:51.095Z,20.45
2019-06-20T23:53:27.871Z,20.41
2019-06-20T23:55:59.884Z,20.38
2019-06-20T23:58:31.927Z,20.32
